El Jadida, Morocco
Current Conditions -  °F | °C
As of 10:00 AM on Friday 31 Oct 2014 (Local Time) from GMMN Reporting Station
Clear Clear  
Wind Chill: 73°   Ceiling: Unl
Heat Index: 73°   Visibility: 6mi
Dew Point: 45°   Wind: 3mph
Humidity: 36%   Direction: 170°S
Pressure: 30.09"   Gusts: NA
Location:  33.26°N, 8.51°W
Report Text: GMMN 310900Z 17003KT CAVOK 23/07 Q1019 NOSIG
Loading
Personal Weather Stations






























Interactive Weather Map
Tropical Storm Tracking
New forecast layout! Learn more

10-Day Weather Forecast

Advertisements
Track Severe Weather on mobile